createdAt,value
2019-02-19T00:00:02.696Z,4.85
2019-02-19T00:02:37.526Z,4.79
2019-02-19T00:05:08.358Z,4.78
2019-02-19T00:07:39.712Z,4.80
2019-02-19T00:10:09.709Z,4.79
2019-02-19T00:12:39.532Z,4.77
2019-02-19T00:15:09.410Z,4.76
2019-02-19T00:17:39.252Z,4.70
2019-02-19T00:20:09.076Z,4.65
2019-02-19T00:22:39.231Z,4.62
2019-02-19T00:25:09.250Z,4.64
2019-02-19T00:27:39.147Z,4.66
2019-02-19T00:30:09.212Z,4.67
2019-02-19T00:32:39.156Z,4.68
2019-02-19T00:35:09.112Z,4.74
2019-02-19T00:37:42.275Z,4.78
2019-02-19T00:40:12.069Z,4.84
2019-02-19T00:42:41.896Z,4.88
2019-02-19T00:45:16.664Z,4.91
2019-02-19T00:47:44.616Z,4.92
2019-02-19T00:50:15.933Z,4.96
2019-02-19T00:52:47.594Z,5.01
2019-02-19T00:55:17.541Z,5.05
2019-02-19T00:57:48.457Z,5.12
2019-02-19T01:00:18.219Z,5.20
2019-02-19T01:02:50.323Z,5.27
2019-02-19T01:05:21.184Z,5.35
2019-02-19T01:07:54.519Z,5.41
2019-02-19T01:10:24.889Z,5.48
2019-02-19T01:12:54.704Z,5.51
2019-02-19T01:15:25.755Z,5.74
2019-02-19T01:17:55.670Z,5.74
2019-02-19T01:20:27.116Z,5.87
2019-02-19T01:22:59.325Z,5.75
2019-02-19T01:25:29.192Z,5.72
2019-02-19T01:28:02.389Z,5.72
2019-02-19T01:30:32.558Z,5.81
2019-02-19T01:33:02.422Z,5.78
2019-02-19T01:35:32.828Z,5.78
2019-02-19T01:38:02.670Z,5.81
2019-02-19T01:40:32.476Z,5.81
2019-02-19T01:43:02.250Z,5.80
2019-02-19T01:45:38.400Z,5.84
2019-02-19T01:48:09.797Z,5.85
2019-02-19T01:50:39.709Z,5.85
2019-02-19T01:53:11.086Z,5.89
2019-02-19T01:55:41.079Z,5.87
2019-02-19T01:58:14.774Z,5.87
2019-02-19T02:00:44.908Z,5.98
2019-02-19T02:03:26.281Z,5.98
2019-02-19T02:05:57.011Z,6.03
2019-02-19T02:08:27.653Z,5.90
2019-02-19T02:11:02.025Z,5.91
2019-02-19T02:13:34.305Z,5.91
2019-02-19T02:16:04.124Z,5.92
2019-02-19T02:18:37.214Z,6.10
2019-02-19T02:21:09.349Z,6.21
2019-02-19T02:23:43.966Z,6.37
2019-02-19T02:26:16.298Z,6.48
2019-02-19T02:28:47.635Z,6.31
2019-02-19T02:31:17.483Z,6.23
2019-02-19T02:33:47.259Z,6.13
2019-02-19T02:36:17.331Z,6.05
2019-02-19T02:38:49.171Z,5.97
2019-02-19T02:41:18.968Z,6.13
2019-02-19T02:43:50.233Z,6.02
2019-02-19T02:46:20.068Z,6.02
2019-02-19T02:48:49.894Z,6.18
2019-02-19T02:51:25.586Z,6.18
2019-02-19T02:54:02.823Z,5.94
2019-02-19T02:56:42.969Z,5.88
2019-02-19T02:59:15.431Z,5.88
2019-02-19T03:01:46.659Z,6.33
2019-02-19T03:04:22.382Z,6.28
2019-02-19T03:07:06.910Z,6.17
2019-02-19T03:09:41.109Z,6.14
2019-02-19T03:12:18.882Z,6.14
2019-02-19T03:14:48.713Z,6.15
2019-02-19T03:17:27.905Z,6.16
2019-02-19T03:19:57.872Z,6.18
2019-02-19T03:22:35.753Z,6.18
2019-02-19T03:25:06.141Z,6.21
2019-02-19T03:27:37.463Z,6.20
2019-02-19T03:30:10.301Z,6.20
2019-02-19T03:32:55.155Z,6.18
2019-02-19T03:35:26.444Z,6.52
2019-02-19T03:38:04.339Z,6.75
2019-02-19T03:40:37.452Z,6.54
2019-02-19T03:43:13.527Z,6.47
2019-02-19T03:45:43.997Z,6.66
2019-02-19T03:48:17.527Z,6.59
2019-02-19T03:50:49.075Z,6.78
2019-02-19T03:53:23.797Z,6.90
2019-02-19T03:56:05.903Z,7.00
2019-02-19T03:58:40.431Z,6.79
2019-02-19T04:01:11.215Z,6.94
2019-02-19T04:03:47.661Z,6.87
2019-02-19T04:06:28.759Z,6.88
2019-02-19T04:09:04.766Z,6.89
2019-02-19T04:11:40.959Z,7.05
2019-02-19T04:14:12.052Z,7.19
2019-02-19T04:16:44.489Z,7.32
2019-02-19T04:19:14.203Z,7.17
2019-02-19T04:21:49.016Z,7.01
2019-02-19T04:24:21.248Z,7.01
2019-02-19T04:26:58.966Z,6.98
2019-02-19T04:29:31.998Z,6.92
2019-02-19T04:32:08.085Z,7.23
2019-02-19T04:34:41.249Z,7.13
2019-02-19T04:37:19.774Z,7.00
2019-02-19T04:39:53.228Z,7.22
2019-02-19T04:42:23.089Z,7.00
2019-02-19T04:44:54.494Z,7.00
2019-02-19T04:47:25.942Z,7.33
2019-02-19T04:50:03.466Z,7.02
2019-02-19T04:52:37.704Z,7.22
2019-02-19T04:55:10.245Z,7.35
2019-02-19T04:57:41.006Z,7.34
2019-02-19T05:00:14.762Z,7.15
2019-02-19T05:02:48.845Z,7.03
2019-02-19T05:05:20.320Z,7.08
2019-02-19T05:07:50.185Z,7.18
2019-02-19T05:10:24.376Z,7.47
2019-02-19T05:13:02.253Z,7.54
2019-02-19T05:15:37.062Z,7.31
2019-02-19T05:18:11.730Z,7.30
2019-02-19T05:20:41.496Z,7.20
2019-02-19T05:23:11.853Z,7.10
2019-02-19T05:25:41.879Z,7.09
2019-02-19T05:28:17.525Z,7.36
2019-02-19T05:30:47.351Z,7.32
2019-02-19T05:33:23.799Z,7.48
2019-02-19T05:35:54.626Z,7.66
2019-02-19T05:38:24.414Z,7.63
2019-02-19T05:40:58.907Z,7.60
2019-02-19T05:43:32.108Z,7.62
2019-02-19T05:46:01.988Z,7.61
2019-02-19T05:48:32.590Z,7.59
2019-02-19T05:51:03.050Z,7.58
2019-02-19T05:53:32.860Z,7.65
2019-02-19T05:56:02.681Z,7.64
2019-02-19T05:58:32.439Z,7.59
2019-02-19T06:01:02.296Z,7.57
2019-02-19T06:03:36.751Z,7.63
2019-02-19T06:06:08.486Z,7.70
2019-02-19T06:08:40.232Z,7.62
2019-02-19T06:11:10.970Z,7.67
2019-02-19T06:13:41.611Z,7.60
2019-02-19T06:16:15.378Z,7.45
2019-02-19T06:18:50.649Z,7.67
2019-02-19T06:21:20.573Z,7.64
2019-02-19T06:23:52.601Z,7.72
2019-02-19T06:26:22.013Z,7.72
2019-02-19T06:28:51.992Z,7.67
2019-02-19T06:31:21.871Z,7.65
2019-02-19T06:33:54.154Z,7.61
2019-02-19T06:36:23.922Z,7.68
2019-02-19T06:38:56.426Z,7.71
2019-02-19T06:41:26.184Z,7.66
2019-02-19T06:44:03.951Z,7.68
2019-02-19T06:46:42.036Z,7.60
2019-02-19T06:49:15.139Z,7.64
2019-02-19T06:51:56.997Z,7.57
2019-02-19T06:54:31.751Z,7.54
2019-02-19T06:57:13.555Z,7.60
2019-02-19T07:00:00.304Z,7.60
2019-02-19T07:02:41.842Z,7.81
2019-02-19T07:05:18.801Z,7.56
2019-02-19T07:08:02.049Z,7.46
2019-02-19T07:13:48.680Z,7.82
2019-02-19T07:16:49.854Z,7.61
2019-02-19T07:19:37.086Z,7.61
2019-02-19T07:22:35.953Z,7.70
2019-02-19T07:25:14.329Z,7.93
2019-02-19T07:27:57.085Z,7.95
2019-02-19T07:30:32.048Z,7.93
2019-02-19T07:33:11.990Z,7.92
2019-02-19T07:36:16.362Z,7.95
2019-02-19T07:38:59.285Z,7.79
2019-02-19T07:41:39.217Z,7.96
2019-02-19T07:44:30.046Z,8.03
2019-02-19T07:47:27.059Z,8.00
2019-02-19T07:50:21.641Z,8.00
2019-02-19T07:53:03.753Z,7.86
2019-02-19T07:55:43.303Z,7.94
2019-02-19T07:58:17.028Z,7.87
2019-02-19T08:00:52.846Z,8.04
2019-02-19T08:03:22.756Z,8.03
2019-02-19T08:06:00.232Z,8.06
2019-02-19T08:08:41.044Z,8.00
2019-02-19T08:11:15.098Z,7.92
2019-02-19T08:13:48.769Z,7.89
2019-02-19T08:16:23.830Z,7.77
2019-02-19T08:18:53.880Z,7.87
2019-02-19T08:21:29.022Z,7.92
2019-02-19T08:24:05.088Z,7.93
2019-02-19T08:26:46.617Z,7.94
2019-02-19T08:29:29.751Z,7.92
2019-02-19T08:32:19.741Z,7.96
2019-02-19T08:34:53.493Z,8.05
2019-02-19T08:37:32.295Z,8.02
2019-02-19T08:40:05.037Z,7.89
2019-02-19T08:42:40.667Z,8.16
2019-02-19T08:45:15.002Z,8.30
2019-02-19T08:47:48.395Z,8.32
2019-02-19T08:50:25.336Z,8.30
2019-02-19T08:52:57.833Z,8.30
2019-02-19T08:55:36.212Z,8.35
2019-02-19T08:58:08.878Z,8.42
2019-02-19T09:00:41.723Z,8.53
2019-02-19T09:03:25.740Z,8.63
2019-02-19T09:06:04.317Z,8.68
2019-02-19T09:08:40.734Z,8.66
2019-02-19T09:11:16.709Z,8.65
2019-02-19T09:13:56.996Z,8.47
2019-02-19T09:16:37.247Z,8.45
2019-02-19T09:19:12.720Z,8.43
2019-02-19T09:21:54.223Z,8.45
2019-02-19T09:24:26.407Z,8.29
2019-02-19T09:27:00.971Z,8.35
2019-02-19T09:29:36.505Z,8.41
2019-02-19T09:32:12.599Z,8.58
2019-02-19T09:34:46.491Z,8.69
2019-02-19T09:37:22.709Z,8.77
2019-02-19T09:39:58.047Z,8.58
2019-02-19T09:42:39.419Z,8.43
2019-02-19T09:45:12.888Z,8.33
2019-02-19T09:47:44.673Z,8.51
2019-02-19T09:50:16.632Z,8.46
2019-02-19T09:52:59.783Z,8.53
2019-02-19T09:55:28.423Z,8.47
2019-02-19T09:58:04.913Z,8.57
2019-02-19T10:00:38.722Z,8.70
2019-02-19T10:03:19.830Z,8.73
2019-02-19T10:06:02.079Z,8.46
2019-02-19T10:08:39.752Z,8.62
2019-02-19T10:11:11.936Z,8.79
2019-02-19T10:13:48.862Z,9.03
2019-02-19T10:16:20.641Z,8.80
2019-02-19T10:18:54.471Z,8.49
2019-02-19T10:21:26.735Z,9.06
2019-02-19T10:24:02.543Z,9.03
2019-02-19T10:26:36.235Z,8.98
2019-02-19T10:29:07.298Z,8.88
2019-02-19T10:31:43.927Z,9.01
2019-02-19T10:34:15.111Z,9.08
2019-02-19T10:36:54.197Z,8.97
2019-02-19T10:39:24.878Z,9.02
2019-02-19T10:41:57.312Z,8.72
2019-02-19T10:44:28.497Z,8.62
2019-02-19T10:47:03.154Z,8.50
2019-02-19T10:49:33.962Z,8.45
2019-02-19T10:52:14.622Z,8.59
2019-02-19T10:54:46.396Z,9.04
2019-02-19T10:57:24.855Z,8.95
2019-02-19T10:59:56.667Z,9.02
2019-02-19T11:02:33.448Z,9.04
2019-02-19T11:05:09.651Z,9.11
2019-02-19T11:07:40.692Z,8.86
2019-02-19T11:10:13.906Z,8.85
2019-02-19T11:12:44.582Z,8.75
2019-02-19T11:15:17.587Z,8.71
2019-02-19T11:17:47.682Z,8.67
2019-02-19T11:20:19.751Z,8.80
2019-02-19T11:22:50.377Z,9.00
2019-02-19T11:25:20.140Z,9.00
2019-02-19T11:27:57.071Z,8.96
2019-02-19T11:30:27.092Z,9.03
2019-02-19T11:32:56.952Z,9.38
2019-02-19T11:35:30.859Z,9.74
2019-02-19T11:38:01.254Z,9.88
2019-02-19T11:40:31.879Z,10.78
2019-02-19T11:43:01.795Z,11.66
2019-02-19T11:45:31.806Z,11.58
2019-02-19T11:48:03.877Z,11.95
2019-02-19T11:50:36.253Z,12.68
2019-02-19T11:53:19.141Z,12.87
2019-02-19T11:55:50.849Z,12.72
2019-02-19T11:58:20.757Z,12.83
2019-02-19T12:00:59.127Z,13.14
2019-02-19T12:03:29.181Z,13.83
2019-02-19T12:06:08.659Z,14.14
2019-02-19T12:08:41.580Z,13.38
2019-02-19T12:11:34.140Z,11.70
2019-02-19T12:14:16.960Z,12.46
2019-02-19T12:16:57.588Z,12.96
2019-02-19T12:19:36.876Z,12.95
2019-02-19T12:22:19.378Z,12.69
2019-02-19T12:24:56.937Z,11.70
2019-02-19T12:27:36.360Z,12.00
2019-02-19T12:30:21.968Z,11.68
2019-02-19T12:32:58.673Z,11.88
2019-02-19T12:35:42.952Z,11.88
2019-02-19T12:38:26.015Z,12.12
2019-02-19T12:41:10.912Z,12.23
2019-02-19T12:43:51.064Z,12.03
2019-02-19T12:46:32.359Z,11.47
2019-02-19T12:49:11.012Z,12.08
2019-02-19T12:51:55.628Z,12.48
2019-02-19T12:54:32.677Z,12.21
2019-02-19T12:57:17.141Z,11.60
2019-02-19T12:59:56.790Z,11.57
2019-02-19T13:02:35.441Z,11.83
2019-02-19T13:05:17.800Z,12.62
2019-02-19T13:08:00.306Z,12.18
2019-02-19T13:10:45.015Z,12.30
2019-02-19T13:13:18.369Z,12.81
2019-02-19T13:15:57.680Z,12.50
2019-02-19T13:18:38.658Z,13.44
2019-02-19T13:21:18.602Z,12.12
2019-02-19T13:24:02.685Z,12.14
2019-02-19T13:26:44.535Z,12.50
2019-02-19T13:29:17.485Z,12.60
2019-02-19T13:32:03.247Z,11.84
2019-02-19T13:34:50.891Z,11.95
2019-02-19T13:37:32.527Z,11.38
2019-02-19T13:40:25.328Z,12.14
2019-02-19T13:43:05.414Z,12.41
2019-02-19T13:45:41.360Z,12.39
2019-02-19T13:48:17.325Z,12.08
2019-02-19T13:50:56.752Z,11.84
2019-02-19T13:53:47.396Z,12.40
2019-02-19T13:56:23.551Z,13.54
2019-02-19T13:58:57.561Z,13.08
2019-02-19T14:01:41.877Z,12.78
2019-02-19T14:04:25.567Z,13.60
2019-02-19T14:07:11.150Z,13.69
2019-02-19T14:09:48.221Z,13.13
2019-02-19T14:12:26.471Z,12.44
2019-02-19T14:15:05.394Z,13.16
2019-02-19T14:17:36.768Z,13.15
2019-02-19T14:20:11.703Z,13.10
2019-02-19T14:22:52.030Z,13.41
2019-02-19T14:25:42.590Z,13.15
2019-02-19T14:28:30.716Z,13.50
2019-02-19T14:31:11.531Z,13.75
2019-02-19T14:33:57.110Z,13.70
2019-02-19T14:36:59.554Z,13.91
2019-02-19T14:42:48.029Z,12.89
2019-02-19T14:45:25.422Z,12.07
2019-02-19T14:48:09.413Z,11.55
2019-02-19T14:50:48.194Z,11.17
2019-02-19T14:53:36.692Z,10.78
2019-02-19T14:56:14.656Z,10.57
2019-02-19T14:58:58.007Z,10.46
2019-02-19T15:01:41.932Z,10.44
2019-02-19T15:04:32.923Z,10.30
2019-02-19T15:07:20.612Z,10.12
2019-02-19T15:09:53.782Z,10.01
2019-02-19T15:12:37.233Z,10.05
2019-02-19T15:15:17.877Z,10.26
2019-02-19T15:17:56.048Z,10.21
2019-02-19T15:20:47.607Z,10.29
2019-02-19T15:23:25.654Z,10.27
2019-02-19T15:26:01.230Z,10.27
2019-02-19T15:28:41.818Z,10.13
2019-02-19T15:31:33.357Z,9.95
2019-02-19T15:34:11.070Z,9.89
2019-02-19T15:37:11.585Z,9.84
2019-02-19T15:39:59.101Z,10.11
2019-02-19T15:42:40.319Z,10.47
2019-02-19T15:45:32.119Z,10.44
2019-02-19T15:48:18.005Z,10.44
2019-02-19T15:50:56.603Z,10.53
2019-02-19T15:53:45.438Z,10.20
2019-02-19T15:56:28.648Z,10.06
2019-02-19T15:59:21.295Z,9.99
2019-02-19T16:01:54.861Z,9.96
2019-02-19T16:04:41.728Z,9.92
2019-02-19T16:07:22.641Z,9.92
2019-02-19T16:09:57.503Z,9.87
2019-02-19T16:12:36.685Z,10.09
2019-02-19T16:15:17.593Z,10.47
2019-02-19T16:18:13.250Z,10.53
2019-02-19T16:20:52.270Z,10.56
2019-02-19T16:23:31.660Z,10.53
2019-02-19T16:26:22.000Z,10.55
2019-02-19T16:28:59.766Z,10.39
2019-02-19T16:31:34.637Z,10.41
2019-02-19T16:34:14.422Z,10.38
2019-02-19T16:36:51.206Z,10.33
2019-02-19T16:39:29.090Z,10.32
2019-02-19T16:42:25.601Z,10.30
2019-02-19T16:45:07.217Z,10.25
2019-02-19T16:48:03.473Z,10.24
2019-02-19T16:50:36.346Z,10.24
2019-02-19T16:53:18.545Z,10.27
2019-02-19T16:55:52.912Z,10.05
2019-02-19T16:58:27.757Z,9.79
2019-02-19T17:01:10.338Z,9.58
2019-02-19T17:03:47.767Z,9.40
2019-02-19T17:06:37.864Z,9.27
2019-02-19T17:09:19.303Z,9.19
2019-02-19T17:12:00.417Z,9.14
2019-02-19T17:14:41.723Z,9.14
2019-02-19T17:17:34.405Z,9.18
2019-02-19T17:20:28.963Z,9.12
2019-02-19T17:23:06.147Z,9.07
2019-02-19T17:25:47.172Z,8.94
2019-02-19T17:28:29.010Z,8.78
2019-02-19T17:31:04.816Z,8.68
2019-02-19T17:33:56.747Z,8.60
2019-02-19T17:36:37.194Z,8.60
2019-02-19T17:39:26.633Z,8.59
2019-02-19T17:42:02.183Z,8.45
2019-02-19T17:44:34.712Z,8.20
2019-02-19T17:47:09.999Z,8.04
2019-02-19T17:49:47.564Z,7.97
2019-02-19T17:52:40.758Z,8.10
2019-02-19T17:55:30.085Z,8.03
2019-02-19T17:58:07.526Z,8.03
2019-02-19T18:00:56.862Z,7.95
2019-02-19T18:03:36.089Z,7.88
2019-02-19T18:06:25.607Z,7.62
2019-02-19T18:09:18.117Z,7.30
2019-02-19T18:11:55.060Z,7.19
2019-02-19T18:14:36.344Z,7.16
2019-02-19T18:17:19.886Z,7.75
2019-02-19T18:19:51.926Z,7.52
2019-02-19T18:22:25.223Z,7.45
2019-02-19T18:24:56.823Z,7.31
2019-02-19T18:27:33.430Z,7.19
2019-02-19T18:30:07.146Z,7.17
2019-02-19T18:32:37.255Z,7.17
2019-02-19T18:35:09.806Z,7.23
2019-02-19T18:37:48.861Z,7.22
2019-02-19T18:40:21.530Z,7.24
2019-02-19T18:42:55.655Z,7.15
2019-02-19T18:45:34.716Z,7.23
2019-02-19T18:48:08.016Z,7.18
2019-02-19T18:50:40.659Z,7.24
2019-02-19T18:53:11.179Z,7.25
2019-02-19T18:55:41.703Z,7.30
2019-02-19T18:58:11.452Z,7.38
2019-02-19T19:00:41.667Z,7.44
2019-02-19T19:03:14.893Z,7.60
2019-02-19T19:05:45.654Z,7.68
2019-02-19T19:08:15.706Z,7.65
2019-02-19T19:10:48.763Z,7.60
2019-02-19T19:13:19.316Z,7.48
2019-02-19T19:15:51.991Z,7.39
2019-02-19T19:18:22.953Z,7.28
2019-02-19T19:20:52.828Z,7.20
2019-02-19T19:23:26.943Z,7.17
2019-02-19T19:25:57.061Z,7.32
2019-02-19T19:28:26.862Z,7.09
2019-02-19T19:31:00.346Z,6.98
2019-02-19T19:33:32.981Z,6.86
2019-02-19T19:36:04.459Z,6.87
2019-02-19T19:38:35.109Z,6.69
2019-02-19T19:41:05.549Z,6.67
2019-02-19T19:43:43.206Z,7.06
2019-02-19T19:46:17.149Z,7.54
2019-02-19T19:48:48.523Z,7.39
2019-02-19T19:51:18.431Z,7.08
2019-02-19T19:53:50.584Z,6.82
2019-02-19T19:56:23.279Z,6.57
2019-02-19T19:58:54.070Z,6.63
2019-02-19T20:01:24.466Z,6.57
2019-02-19T20:03:58.619Z,6.46
2019-02-19T20:06:29.396Z,6.55
2019-02-19T20:08:59.882Z,6.57
2019-02-19T20:11:32.035Z,6.51
2019-02-19T20:14:04.680Z,6.35
2019-02-19T20:16:41.620Z,6.28
2019-02-19T20:19:16.155Z,6.13
2019-02-19T20:24:32.503Z,6.05
2019-02-19T20:27:08.614Z,5.99
2019-02-19T20:29:41.419Z,5.85
2019-02-19T20:32:17.208Z,5.85
2019-02-19T20:34:51.827Z,5.76
2019-02-19T20:37:31.063Z,5.73
2019-02-19T20:40:03.452Z,5.58
2019-02-19T20:42:37.934Z,5.46
2019-02-19T20:45:16.394Z,5.33
2019-02-19T20:47:51.269Z,5.32
2019-02-19T20:50:28.789Z,5.20
2019-02-19T20:53:03.777Z,5.33
2019-02-19T20:55:38.144Z,5.30
2019-02-19T20:58:08.913Z,5.26
2019-02-19T21:00:40.576Z,5.65
2019-02-19T21:03:27.770Z,6.10
2019-02-19T21:06:03.611Z,6.22
2019-02-19T21:08:38.068Z,6.31
2019-02-19T21:11:10.796Z,5.93
2019-02-19T21:13:45.841Z,5.63
2019-02-19T21:16:19.624Z,5.31
2019-02-19T21:18:52.066Z,5.10
2019-02-19T21:21:29.898Z,4.98
2019-02-19T21:24:06.260Z,5.01
2019-02-19T21:26:40.758Z,4.88
2019-02-19T21:29:18.260Z,4.94
2019-02-19T21:31:53.391Z,4.94
2019-02-19T21:34:25.044Z,4.67
2019-02-19T21:37:01.422Z,4.40
2019-02-19T21:39:41.452Z,4.35
2019-02-19T21:42:25.510Z,4.28
2019-02-19T21:45:03.206Z,4.28
2019-02-19T21:48:01.321Z,4.38
2019-02-19T21:50:38.941Z,4.25
2019-02-19T21:53:23.753Z,4.00
2019-02-19T21:55:58.528Z,3.60
2019-02-19T21:58:36.475Z,3.47
2019-02-19T22:01:12.790Z,3.35
2019-02-19T22:03:51.018Z,3.36
2019-02-19T22:06:33.004Z,3.36
2019-02-19T22:09:13.407Z,3.14
2019-02-19T22:11:48.123Z,3.14
2019-02-19T22:14:22.909Z,3.11
2019-02-19T22:17:04.479Z,3.30
2019-02-19T22:19:42.606Z,3.30
2019-02-19T22:22:17.437Z,3.38
2019-02-19T22:24:50.685Z,3.47
2019-02-19T22:27:26.780Z,3.45
2019-02-19T22:30:09.140Z,3.45
2019-02-19T22:32:56.708Z,3.64
2019-02-19T22:35:34.342Z,3.61
2019-02-19T22:38:05.629Z,3.61
2019-02-19T22:40:41.590Z,3.35
2019-02-19T22:43:14.232Z,3.25
2019-02-19T22:45:49.448Z,3.25
2019-02-19T22:48:20.241Z,3.20
2019-02-19T22:50:52.866Z,3.17
2019-02-19T22:53:41.810Z,3.17
2019-02-19T22:56:15.996Z,3.07
2019-02-19T22:58:48.432Z,3.07
2019-02-19T23:01:24.298Z,2.77
2019-02-19T23:03:59.577Z,2.61
2019-02-19T23:06:30.092Z,2.44
2019-02-19T23:09:03.096Z,2.23
2019-02-19T23:11:34.657Z,2.45
2019-02-19T23:14:13.194Z,2.45
2019-02-19T23:16:43.345Z,2.68
2019-02-19T23:19:13.344Z,3.03
2019-02-19T23:21:49.488Z,3.03
2019-02-19T23:24:20.541Z,2.86
2019-02-19T23:26:53.136Z,3.16
2019-02-19T23:29:23.403Z,3.72
2019-02-19T23:31:53.729Z,3.72
2019-02-19T23:34:26.049Z,3.74
2019-02-19T23:37:10.824Z,3.92
2019-02-19T23:39:43.598Z,3.67
2019-02-19T23:42:18.650Z,3.31
2019-02-19T23:44:51.664Z,3.09
2019-02-19T23:47:27.011Z,2.96
2019-02-19T23:50:00.420Z,3.06
2019-02-19T23:52:37.740Z,3.07
2019-02-19T23:55:13.367Z,3.01
2019-02-19T23:57:52.011Z,2.78
